createdAt,value
2022-08-23T00:02:17.665Z,32.00
2022-08-23T00:05:03.568Z,29.67
2022-08-23T00:07:42.756Z,32.00
2022-08-23T00:10:16.600Z,30.33
2022-08-23T00:12:47.270Z,32.00
2022-08-23T00:15:20.537Z,32.33
2022-08-23T00:17:49.368Z,31.67
2022-08-23T00:20:20.899Z,30.33
2022-08-23T00:22:50.349Z,32.50
2022-08-23T00:25:20.317Z,33.00
2022-08-23T00:27:49.308Z,32.00
2022-08-23T00:30:19.289Z,31.33
2022-08-23T00:32:47.967Z,33.33
2022-08-23T00:35:26.986Z,28.00
2022-08-23T00:38:32.015Z,31.67
2022-08-23T00:40:53.184Z,33.33
2022-08-23T00:43:55.022Z,32.67
2022-08-23T00:47:05.425Z,32.67
2022-08-23T00:49:38.385Z,32.33
2022-08-23T00:52:42.721Z,31.67
2022-08-23T00:55:12.589Z,30.00
2022-08-23T00:57:42.120Z,27.00
2022-08-23T01:00:16.937Z,31.50
2022-08-23T01:02:48.353Z,33.33
2022-08-23T01:05:17.249Z,30.33
2022-08-23T01:07:55.891Z,32.00
2022-08-23T01:10:29.891Z,33.00
2022-08-23T01:13:45.311Z,29.67
2022-08-23T01:16:37.369Z,33.00
2022-08-23T01:19:22.727Z,31.33
2022-08-23T01:22:35.265Z,32.67
2022-08-23T01:25:10.960Z,33.00
2022-08-23T01:27:41.873Z,33.00
2022-08-23T01:30:17.081Z,33.00
2022-08-23T01:32:55.898Z,32.67
2022-08-23T01:35:44.337Z,33.00
2022-08-23T01:38:14.149Z,31.67
2022-08-23T01:40:45.102Z,34.33
2022-08-23T01:43:15.676Z,33.33
2022-08-23T01:45:44.470Z,36.33
2022-08-23T01:48:14.894Z,34.00
2022-08-23T01:50:45.621Z,36.75
2022-08-23T01:53:15.911Z,36.00
2022-08-23T01:55:45.097Z,34.33
2022-08-23T01:58:14.038Z,36.00
2022-08-23T02:00:44.625Z,35.67
2022-08-23T02:03:13.711Z,34.33
2022-08-23T02:05:43.300Z,32.33
2022-08-23T02:08:32.162Z,38.00
2022-08-23T02:11:01.773Z,33.33
2022-08-23T02:13:30.401Z,35.00
2022-08-23T02:15:59.697Z,34.67
2022-08-23T02:18:30.068Z,36.00
2022-08-23T02:20:59.199Z,32.00
2022-08-23T02:23:28.637Z,32.00
2022-08-23T02:25:57.815Z,33.67
2022-08-23T02:28:26.457Z,35.00
2022-08-23T02:30:55.119Z,34.67
2022-08-23T02:33:25.203Z,33.75
2022-08-23T02:35:53.886Z,30.00
2022-08-23T02:38:22.546Z,31.67
2022-08-23T02:41:00.622Z,30.67
2022-08-23T02:43:31.148Z,33.00
2022-08-23T02:45:59.887Z,34.00
2022-08-23T02:48:28.510Z,32.00
2022-08-23T02:51:06.626Z,30.50
2022-08-23T02:53:36.244Z,31.33
2022-08-23T02:56:05.743Z,16.33
2022-08-23T02:58:42.725Z,30.00
2022-08-23T03:01:27.431Z,31.33
2022-08-23T03:03:58.367Z,32.00
2022-08-23T03:06:27.822Z,32.67
2022-08-23T03:08:58.160Z,33.50
2022-08-23T03:11:28.034Z,31.67
2022-08-23T03:13:56.849Z,30.00
2022-08-23T03:16:25.781Z,30.33
2022-08-23T03:18:54.568Z,30.00
2022-08-23T03:21:23.665Z,29.00
2022-08-23T03:23:53.379Z,30.67
2022-08-23T03:26:22.048Z,31.33
2022-08-23T03:28:51.956Z,30.00
2022-08-23T03:31:22.602Z,31.00
2022-08-23T03:33:51.619Z,29.33
2022-08-23T03:36:21.350Z,30.25
2022-08-23T03:38:58.407Z,31.00
2022-08-23T03:41:28.405Z,30.50
2022-08-23T03:43:57.079Z,29.33
2022-08-23T03:46:25.751Z,29.00
2022-08-23T03:48:59.822Z,32.33
2022-08-23T03:51:31.423Z,33.33
2022-08-23T03:54:00.653Z,30.67
2022-08-23T03:56:36.438Z,26.00
2022-08-23T03:59:13.991Z,32.00
2022-08-23T04:01:44.269Z,28.33
2022-08-23T04:04:12.974Z,30.00
2022-08-23T04:06:41.705Z,30.67
2022-08-23T04:09:12.368Z,32.25
2022-08-23T04:11:41.486Z,20.67
2022-08-23T04:14:11.326Z,33.33
2022-08-23T04:16:40.745Z,29.67
2022-08-23T04:19:14.354Z,31.25
2022-08-23T04:21:53.748Z,27.33
2022-08-23T04:24:25.429Z,31.00
2022-08-23T04:26:54.089Z,30.00
2022-08-23T04:29:34.169Z,29.67
2022-08-23T04:32:07.673Z,30.50
2022-08-23T04:34:40.047Z,30.00
2022-08-23T04:37:11.122Z,27.75
2022-08-23T04:39:59.432Z,27.75
2022-08-23T04:42:28.126Z,30.00
2022-08-23T04:44:57.749Z,30.67
2022-08-23T04:47:27.297Z,27.00
2022-08-23T04:49:55.956Z,26.00
2022-08-23T04:52:24.632Z,29.00
2022-08-23T04:54:54.499Z,26.50
2022-08-23T04:57:23.909Z,27.33
2022-08-23T04:59:52.947Z,27.00
2022-08-23T05:02:21.649Z,28.33
2022-08-23T05:04:50.201Z,28.00
2022-08-23T05:07:18.908Z,26.00
2022-08-23T05:09:47.459Z,25.33
2022-08-23T05:12:16.094Z,26.67
2022-08-23T05:14:44.776Z,26.00
2022-08-23T05:17:16.652Z,26.00
2022-08-23T05:19:47.266Z,30.00
2022-08-23T05:22:18.500Z,28.33
2022-08-23T05:24:47.182Z,26.67
2022-08-23T05:27:16.014Z,24.00
2022-08-23T05:29:44.625Z,30.00
2022-08-23T05:32:13.207Z,27.00
2022-08-23T05:34:42.274Z,24.00
2022-08-23T05:37:10.948Z,25.67
2022-08-23T05:39:39.832Z,28.67
2022-08-23T05:42:14.937Z,27.00
2022-08-23T05:44:45.702Z,28.00
2022-08-23T05:47:17.632Z,29.00
2022-08-23T05:49:52.343Z,28.67
2022-08-23T05:52:21.099Z,24.33
2022-08-23T05:54:50.544Z,25.00
2022-08-23T05:57:19.239Z,29.00
2022-08-23T05:59:48.158Z,23.33
2022-08-23T06:02:16.802Z,25.00
2022-08-23T06:04:45.484Z,25.67
2022-08-23T06:07:14.318Z,24.67
2022-08-23T06:09:43.749Z,21.00
2022-08-23T06:12:12.402Z,22.33
2022-08-23T06:14:41.714Z,24.33
2022-08-23T06:17:10.733Z,19.00
2022-08-23T06:19:39.347Z,25.00
2022-08-23T06:22:08.968Z,22.00
2022-08-23T06:24:37.589Z,21.00
2022-08-23T06:27:07.620Z,22.33
2022-08-23T06:29:36.512Z,17.67
2022-08-23T06:32:06.002Z,21.67
2022-08-23T06:34:38.529Z,22.67
2022-08-23T06:37:12.678Z,21.33
2022-08-23T06:39:42.089Z,21.00
2022-08-23T06:42:38.195Z,21.67
2022-08-23T06:45:06.639Z,21.33
2022-08-23T06:47:36.878Z,22.00
2022-08-23T06:50:06.328Z,20.00
2022-08-23T06:52:34.933Z,19.33
2022-08-23T06:55:04.202Z,18.67
2022-08-23T06:57:32.763Z,19.00
2022-08-23T07:00:01.619Z,17.00
2022-08-23T07:02:30.725Z,21.33
2022-08-23T07:05:00.138Z,21.00
2022-08-23T07:07:37.566Z,24.00
2022-08-23T07:10:11.002Z,19.00
2022-08-23T07:12:42.868Z,20.33
2022-08-23T07:15:13.232Z,18.00
2022-08-23T07:17:42.703Z,20.00
2022-08-23T07:20:11.593Z,23.33
2022-08-23T07:22:40.627Z,21.00
2022-08-23T07:25:09.559Z,19.67
2022-08-23T07:27:39.509Z,18.00
2022-08-23T07:30:09.299Z,19.00
2022-08-23T07:32:38.128Z,27.00
2022-08-23T07:35:07.560Z,23.00
2022-08-23T07:37:37.910Z,22.33
2022-08-23T07:40:08.615Z,18.00
2022-08-23T07:42:38.579Z,22.67
2022-08-23T07:45:10.032Z,20.33
2022-08-23T07:47:38.735Z,20.67
2022-08-23T07:50:08.290Z,19.00
2022-08-23T07:52:37.036Z,18.67
2022-08-23T07:55:06.982Z,17.00
2022-08-23T07:57:35.682Z,20.00
2022-08-23T08:00:06.534Z,19.00
2022-08-23T08:02:35.700Z,16.67
2022-08-23T08:05:04.791Z,8.33
2022-08-23T08:07:37.580Z,18.67
2022-08-23T08:10:07.474Z,22.00
2022-08-23T08:12:36.592Z,21.67
2022-08-23T08:15:06.186Z,22.67
2022-08-23T08:17:34.793Z,22.33
2022-08-23T08:20:04.456Z,21.67
2022-08-23T08:22:34.056Z,20.67
2022-08-23T08:25:02.902Z,20.67
2022-08-23T08:27:33.986Z,21.33
2022-08-23T08:30:08.781Z,16.33
2022-08-23T08:32:46.721Z,18.67
2022-08-23T08:35:16.209Z,21.00
2022-08-23T08:37:44.837Z,17.00
2022-08-23T08:40:16.388Z,18.67
2022-08-23T08:43:06.537Z,16.00
2022-08-23T08:46:05.762Z,17.67
2022-08-23T08:48:45.850Z,15.00
2022-08-23T08:52:02.314Z,16.67
2022-08-23T08:54:32.876Z,12.00
2022-08-23T08:57:02.748Z,14.50
2022-08-23T09:00:00.894Z,13.00
2022-08-23T09:02:35.869Z,15.00
2022-08-23T09:05:27.352Z,15.00
2022-08-23T09:09:03.979Z,13.00
2022-08-23T09:11:41.160Z,15.33
2022-08-23T09:14:53.086Z,13.00
2022-08-23T09:17:54.966Z,9.00
2022-08-23T09:20:32.908Z,11.67
2022-08-23T09:23:18.288Z,11.33
2022-08-23T09:26:03.462Z,11.00
2022-08-23T09:28:37.243Z,12.50
2022-08-23T09:31:08.390Z,12.67
2022-08-23T09:33:49.455Z,8.67
2022-08-23T09:36:25.748Z,12.00
2022-08-23T09:39:24.553Z,12.67
2022-08-23T09:42:00.917Z,13.33
2022-08-23T09:44:43.659Z,9.00
2022-08-23T09:47:17.819Z,11.33
2022-08-23T09:49:48.606Z,11.67
2022-08-23T09:52:34.644Z,10.33
2022-08-23T09:55:26.543Z,9.00
2022-08-23T09:57:55.210Z,8.00
2022-08-23T10:00:35.974Z,8.00
2022-08-23T10:03:27.845Z,11.00
2022-08-23T10:06:01.093Z,12.67
2022-08-23T10:08:43.205Z,14.00
2022-08-23T10:11:28.491Z,9.33
2022-08-23T10:13:58.278Z,13.67
2022-08-23T10:16:46.138Z,12.00
2022-08-23T10:19:59.351Z,11.00
2022-08-23T10:22:53.197Z,11.00
2022-08-23T10:25:48.798Z,10.00
2022-08-23T10:29:06.501Z,11.00
2022-08-23T10:31:53.957Z,8.67
2022-08-23T10:34:47.190Z,11.67
2022-08-23T10:37:46.156Z,8.67
2022-08-23T10:40:32.409Z,9.67
2022-08-23T10:43:52.479Z,11.67
2022-08-23T10:46:23.867Z,12.67
2022-08-23T10:49:00.486Z,10.00
2022-08-23T10:51:40.489Z,13.33
2022-08-23T10:54:46.423Z,11.00
2022-08-23T10:57:19.682Z,11.67
2022-08-23T10:59:51.294Z,11.00
2022-08-23T11:02:37.928Z,10.67
2022-08-23T11:05:27.453Z,8.67
2022-08-23T11:08:06.925Z,8.33
2022-08-23T11:10:55.883Z,12.67
2022-08-23T11:13:29.543Z,10.67
2022-08-23T11:16:14.041Z,14.00
2022-08-23T11:18:51.798Z,11.33
2022-08-23T11:21:26.127Z,9.00
2022-08-23T11:24:00.830Z,8.00
2022-08-23T11:26:36.376Z,9.00
2022-08-23T11:29:07.698Z,10.00
2022-08-23T11:32:03.394Z,11.00
2022-08-23T11:35:09.472Z,7.00
2022-08-23T11:38:04.846Z,9.00
2022-08-23T11:40:53.043Z,10.33
2022-08-23T11:43:39.185Z,9.33
2022-08-23T11:46:26.048Z,8.67
2022-08-23T11:49:30.695Z,8.33
2022-08-23T11:52:17.581Z,9.67
2022-08-23T11:55:33.350Z,9.00
2022-08-23T11:58:57.851Z,13.00
2022-08-23T12:01:39.798Z,7.67
2022-08-23T12:04:35.698Z,8.00
2022-08-23T12:07:12.804Z,8.00
2022-08-23T12:09:41.255Z,8.33
2022-08-23T12:12:38.694Z,8.67
2022-08-23T12:15:13.889Z,7.67
2022-08-23T12:17:42.272Z,9.00
2022-08-23T12:20:30.689Z,9.33
2022-08-23T12:23:30.864Z,5.67
2022-08-23T12:26:28.654Z,8.00
2022-08-23T12:29:11.528Z,7.00
2022-08-23T12:31:53.301Z,9.00
2022-08-23T12:34:50.024Z,8.67
2022-08-23T12:37:53.257Z,8.00
2022-08-23T12:40:54.695Z,7.33
2022-08-23T12:43:31.984Z,7.67
2022-08-23T12:46:03.487Z,10.33
2022-08-23T12:48:46.847Z,6.67
2022-08-23T12:51:17.166Z,11.00
2022-08-23T12:53:46.318Z,8.67
2022-08-23T12:56:31.421Z,9.00
2022-08-23T12:59:07.560Z,7.33
2022-08-23T13:01:40.219Z,7.00
2022-08-23T13:04:15.822Z,4.00
2022-08-23T13:07:04.717Z,6.33
2022-08-23T13:09:39.130Z,6.00
2022-08-23T13:12:11.764Z,8.50
2022-08-23T13:14:49.020Z,6.00
2022-08-23T13:17:26.149Z,8.67
2022-08-23T13:20:09.235Z,9.00
2022-08-23T13:23:05.724Z,8.50
2022-08-23T13:25:42.921Z,7.67
2022-08-23T13:28:31.137Z,7.00
2022-08-23T13:31:11.142Z,9.00
2022-08-23T13:33:41.111Z,7.00
2022-08-23T13:36:19.451Z,8.00
2022-08-23T13:38:50.257Z,8.00
2022-08-23T13:41:38.508Z,7.00
2022-08-23T13:44:09.774Z,7.00
2022-08-23T13:46:47.312Z,8.00
2022-08-23T13:49:24.505Z,9.00
2022-08-23T13:54:51.036Z,8.00
2022-08-23T13:57:22.825Z,8.00
2022-08-23T13:59:59.155Z,8.67
2022-08-23T14:02:29.575Z,8.00
2022-08-23T14:04:58.202Z,10.67
2022-08-23T14:07:26.647Z,10.67
2022-08-23T14:09:57.317Z,10.00
2022-08-23T14:12:32.075Z,10.00
2022-08-23T14:15:04.667Z,10.00
2022-08-23T14:17:43.674Z,8.00
2022-08-23T14:20:33.748Z,7.33
2022-08-23T14:23:11.619Z,8.33
2022-08-23T14:25:40.610Z,9.00
2022-08-23T14:28:09.145Z,6.67
2022-08-23T14:30:38.463Z,9.00
2022-08-23T14:33:07.305Z,8.33
2022-08-23T14:35:35.802Z,7.67
2022-08-23T14:38:05.192Z,10.00
2022-08-23T14:40:36.396Z,11.00
2022-08-23T14:43:06.169Z,9.67
2022-08-23T14:45:34.600Z,9.33
2022-08-23T14:48:03.658Z,8.33
2022-08-23T14:50:32.317Z,8.67
2022-08-23T14:53:06.633Z,11.00
2022-08-23T14:55:35.184Z,9.33
2022-08-23T14:58:04.944Z,9.00
2022-08-23T15:00:35.671Z,11.33
2022-08-23T15:03:09.957Z,11.67
2022-08-23T15:05:38.839Z,9.00
2022-08-23T15:08:07.535Z,10.00
2022-08-23T15:12:13.104Z,10.00
2022-08-23T15:13:32.556Z,7.00
2022-08-23T15:16:07.380Z,10.33
2022-08-23T15:18:37.858Z,9.33
2022-08-23T15:21:07.486Z,10.67
2022-08-23T15:23:35.941Z,9.33
2022-08-23T15:26:04.913Z,9.33
2022-08-23T15:28:33.506Z,11.67
2022-08-23T15:31:02.476Z,10.33
2022-08-23T15:33:32.925Z,8.00
2022-08-23T15:36:02.182Z,10.00
2022-08-23T15:38:32.609Z,11.00
2022-08-23T15:41:01.636Z,6.67
2022-08-23T15:43:34.905Z,8.67
2022-08-23T15:46:09.875Z,8.33
2022-08-23T15:48:51.979Z,9.67
2022-08-23T15:51:20.649Z,9.00
2022-08-23T15:53:49.511Z,11.00
2022-08-23T15:56:28.308Z,10.33
2022-08-23T15:58:57.192Z,11.67
2022-08-23T16:01:29.053Z,9.33
2022-08-23T16:03:57.673Z,11.00
2022-08-23T16:06:27.120Z,12.00
2022-08-23T16:08:56.284Z,11.33
2022-08-23T16:11:24.967Z,8.00
2022-08-23T16:13:55.322Z,9.33
2022-08-23T16:16:31.335Z,8.33
2022-08-23T16:19:01.049Z,11.00
2022-08-23T16:21:31.924Z,10.00
2022-08-23T16:24:01.490Z,9.33
2022-08-23T16:26:35.707Z,8.00
2022-08-23T16:29:10.416Z,10.33
2022-08-23T16:31:40.010Z,9.00
2022-08-23T16:34:14.682Z,8.33
2022-08-23T16:36:48.939Z,11.00
2022-08-23T16:39:18.605Z,10.33
2022-08-23T16:41:47.613Z,8.67
2022-08-23T16:44:16.100Z,9.00
2022-08-23T16:46:45.230Z,6.00
2022-08-23T16:49:18.856Z,8.00
2022-08-23T16:51:48.058Z,10.00
2022-08-23T16:54:19.484Z,9.67
2022-08-23T16:56:48.387Z,12.00
2022-08-23T16:59:16.888Z,9.33
2022-08-23T17:02:00.987Z,8.33
2022-08-23T17:04:39.380Z,12.00
2022-08-23T17:07:07.851Z,9.33
2022-08-23T17:09:36.324Z,10.00
2022-08-23T17:12:05.208Z,9.00
2022-08-23T17:14:33.743Z,9.33
2022-08-23T17:17:02.357Z,9.33
2022-08-23T17:19:30.805Z,10.33
2022-08-23T17:21:59.376Z,8.67
2022-08-23T17:24:27.902Z,10.33
2022-08-23T17:26:56.816Z,12.00
2022-08-23T17:29:26.493Z,9.40
2022-08-23T17:31:55.038Z,9.67
2022-08-23T17:34:25.185Z,11.67
2022-08-23T17:36:56.192Z,10.33
2022-08-23T17:39:29.374Z,11.67
2022-08-23T17:41:59.050Z,10.67
2022-08-23T17:44:27.636Z,8.67
2022-08-23T17:46:56.102Z,10.00
2022-08-23T17:49:25.358Z,12.00
2022-08-23T17:51:53.955Z,13.00
2022-08-23T17:54:24.207Z,11.67
2022-08-23T17:56:53.373Z,13.33
2022-08-23T17:59:22.155Z,14.00
2022-08-23T18:01:51.310Z,12.33
2022-08-23T18:04:19.919Z,14.00
2022-08-23T18:06:48.601Z,14.00
2022-08-23T18:09:17.486Z,12.00
2022-08-23T18:11:48.154Z,14.00
2022-08-23T18:14:16.714Z,14.00
2022-08-23T18:16:45.549Z,12.67
2022-08-23T18:19:14.434Z,15.33
2022-08-23T18:21:44.656Z,14.50
2022-08-23T18:24:14.063Z,15.33
2022-08-23T18:27:02.489Z,14.67
2022-08-23T18:29:36.441Z,15.00
2022-08-23T18:32:10.593Z,17.00
2022-08-23T18:34:40.145Z,13.00
2022-08-23T18:37:09.845Z,5.00
2022-08-23T18:39:39.597Z,15.00
2022-08-23T18:42:09.312Z,14.00
2022-08-23T18:44:38.006Z,15.00
2022-08-23T18:47:07.312Z,13.33
2022-08-23T18:49:38.889Z,13.33
2022-08-23T18:52:08.017Z,13.67
2022-08-23T18:54:38.037Z,13.33
2022-08-23T18:57:06.770Z,10.67
2022-08-23T18:59:35.264Z,13.00
2022-08-23T19:02:06.917Z,15.00
2022-08-23T19:04:36.838Z,13.00
2022-08-23T19:07:05.602Z,14.00
2022-08-23T19:09:34.593Z,12.67
2022-08-23T19:12:06.266Z,12.67
2022-08-23T19:14:35.830Z,12.67
2022-08-23T19:17:10.492Z,14.00
2022-08-23T19:19:38.982Z,13.67
2022-08-23T19:22:08.023Z,8.33
2022-08-23T19:24:36.518Z,12.00
2022-08-23T19:27:05.633Z,12.00
2022-08-23T19:29:35.449Z,10.33
2022-08-23T19:32:07.551Z,12.00
2022-08-23T19:34:36.235Z,11.67
2022-08-23T19:37:05.272Z,13.33
2022-08-23T19:39:39.540Z,10.00
2022-08-23T19:42:11.840Z,10.00
2022-08-23T19:44:40.810Z,12.00
2022-08-23T19:47:19.789Z,12.33
2022-08-23T19:49:49.698Z,11.33
2022-08-23T19:52:18.335Z,9.33
2022-08-23T19:54:46.863Z,12.00
2022-08-23T19:57:15.938Z,12.00
2022-08-23T19:59:44.819Z,13.00
2022-08-23T20:02:14.643Z,7.67
2022-08-23T20:04:43.351Z,10.67
2022-08-23T20:07:12.205Z,11.00
2022-08-23T20:09:40.805Z,11.33
2022-08-23T20:12:10.976Z,11.67
2022-08-23T20:14:40.350Z,12.00
2022-08-23T20:17:08.927Z,13.00
2022-08-23T20:19:37.878Z,10.00
2022-08-23T20:22:24.956Z,13.00
2022-08-23T20:24:53.524Z,12.33
2022-08-23T20:27:27.806Z,12.00
2022-08-23T20:30:06.303Z,11.67
2022-08-23T20:32:35.690Z,11.33
2022-08-23T20:35:08.773Z,12.00
2022-08-23T20:37:37.577Z,10.00
2022-08-23T20:40:10.732Z,12.00
2022-08-23T20:42:40.201Z,11.67
2022-08-23T20:45:09.726Z,11.67
2022-08-23T20:47:40.355Z,10.33
2022-08-23T20:50:09.792Z,12.33
2022-08-23T20:52:38.322Z,12.00
2022-08-23T20:55:10.651Z,10.33
2022-08-23T20:57:40.019Z,10.67
2022-08-23T21:00:09.807Z,12.67
2022-08-23T21:02:39.853Z,8.80
2022-08-23T21:05:08.903Z,12.33
2022-08-23T21:07:38.745Z,11.67
2022-08-23T21:10:07.815Z,10.00
2022-08-23T21:12:36.366Z,11.33
2022-08-23T21:15:10.644Z,11.67
2022-08-23T21:17:39.504Z,10.33
2022-08-23T21:20:08.942Z,12.00
2022-08-23T21:22:37.551Z,11.67
2022-08-23T21:25:07.157Z,12.67
2022-08-23T21:27:35.962Z,12.00
2022-08-23T21:30:07.748Z,12.00
2022-08-23T21:32:36.980Z,12.00
2022-08-23T21:35:06.211Z,10.00
2022-08-23T21:37:35.509Z,12.67
2022-08-23T21:40:05.246Z,13.33
2022-08-23T21:42:33.985Z,13.00
2022-08-23T21:45:03.087Z,11.00
2022-08-23T21:47:31.666Z,12.67
2022-08-23T21:50:00.166Z,11.00
2022-08-23T21:52:28.653Z,11.00
2022-08-23T21:54:57.188Z,11.00
2022-08-23T21:57:25.670Z,10.33
2022-08-23T21:59:54.211Z,11.00
2022-08-23T22:02:23.413Z,13.67
2022-08-23T22:04:51.885Z,10.67
2022-08-23T22:07:21.126Z,12.33
2022-08-23T22:09:51.743Z,10.67
2022-08-23T22:12:24.463Z,11.33
2022-08-23T22:14:53.437Z,14.00
2022-08-23T22:17:21.938Z,12.00
2022-08-23T22:19:51.758Z,13.00
2022-08-23T22:22:22.134Z,12.83
2022-08-23T22:24:51.283Z,12.00
2022-08-23T22:27:20.064Z,15.00
2022-08-23T22:29:48.748Z,13.00
2022-08-23T22:32:17.773Z,12.00
2022-08-23T22:34:47.375Z,10.00
2022-08-23T22:37:16.352Z,13.67
2022-08-23T22:39:46.200Z,11.00
2022-08-23T22:42:16.479Z,15.00
2022-08-23T22:44:45.067Z,12.00
2022-08-23T22:47:13.550Z,13.00
2022-08-23T22:49:42.132Z,12.33
2022-08-23T22:52:10.685Z,14.67
2022-08-23T22:54:39.268Z,13.33
2022-08-23T22:57:07.739Z,12.00
2022-08-23T22:59:36.547Z,14.00
2022-08-23T23:02:05.570Z,12.00
2022-08-23T23:04:35.526Z,12.00
2022-08-23T23:07:04.935Z,12.33
2022-08-23T23:09:33.433Z,14.00
2022-08-23T23:12:02.272Z,14.00
2022-08-23T23:14:30.802Z,13.00
2022-08-23T23:16:59.476Z,13.67
2022-08-23T23:19:46.671Z,14.00
2022-08-23T23:22:15.204Z,13.00
2022-08-23T23:24:43.715Z,13.00
2022-08-23T23:27:12.252Z,13.33
2022-08-23T23:29:42.206Z,13.67
2022-08-23T23:32:12.161Z,10.00
2022-08-23T23:34:40.903Z,15.50
2022-08-23T23:37:09.547Z,14.00
2022-08-23T23:39:38.125Z,13.33
2022-08-23T23:42:07.145Z,12.00
2022-08-23T23:44:35.623Z,12.00
2022-08-23T23:47:04.334Z,14.67
2022-08-23T23:49:33.668Z,16.00
2022-08-23T23:52:05.752Z,17.00
2022-08-23T23:54:36.666Z,19.00
2022-08-23T23:57:07.283Z,19.00
2022-08-23T23:59:37.036Z,18.67
